Time;durP1;ratioP1;P1;durP2;ratioP2;P2;SDS_P1;SDS_P2;PMS_P1;PMS_P2;Temp;Humidity;BMP_temperature;BMP_pressure;BME280_temperature;BME280_humidity;BME280_pressure;Samples;Min_cycle;Max_cycle;Signal;HPM_P1;HPM_P2
2022/09/20 00:00:26;;;;;;;;;;;;;;;9.50;80.66;98344.38;5082420;28;20012;-66
2022/09/20 00:03:19;;;;;;;;;;;;;;;9.51;81.03;98337.84;5082109;28;20023;-65
2022/09/20 00:06:35;;;;;;;;;;;;;;;9.51;80.55;98351.41;5084825;28;19974;-58
2022/09/20 00:09:04;;;;;;;;;;;;;;;9.52;80.22;98353.81;5086782;28;19924;-66
2022/09/20 00:11:32;;;;;;;;;;;;;;;9.49;80.54;98353.59;5092551;28;20023;-66
2022/09/20 00:14:11;;;;;;;;;;;;;;;9.48;80.68;98352.81;5089862;28;19977;-66
2022/09/20 00:16:39;;;;;;;;;;;;;;;9.45;80.51;98345.25;5093297;28;20382;-66
2022/09/20 00:19:08;;;;;;;;;;;;;;;9.44;80.74;98349.06;5089441;28;19943;-67
2022/09/20 00:21:39;;;;;;;;;;;;;;;9.39;80.45;98349.94;5085213;28;20336;-67
2022/09/20 00:24:10;;;;;;;;;;;;;;;9.39;80.87;98344.50;5090761;28;19931;-66
2022/09/20 00:26:40;;;;;;;;;;;;;;;9.38;80.88;98347.53;5091376;28;19928;-66
2022/09/20 00:31:59;;;;;;;;;;;;;;;9.39;80.45;98351.84;5089310;28;19931;-66
2022/09/20 00:37:16;;;;;;;;;;;;;;;9.34;80.70;98341.88;5078331;28;19924;-66
2022/09/20 00:39:44;;;;;;;;;;;;;;;9.29;80.50;98341.94;5071360;28;20320;-67
2022/09/20 00:42:14;;;;;;;;;;;;;;;9.28;80.74;98336.81;5092061;28;20019;-67
2022/09/20 00:44:50;;;;;;;;;;;;;;;9.25;80.62;98340.91;5080439;28;20019;-66
2022/09/20 00:47:38;;;;;;;;;;;;;;;9.23;80.79;98348.53;5085062;28;19928;-66
2022/09/20 00:50:21;;;;;;;;;;;;;;;9.22;81.07;98336.06;5073006;28;20411;-66
2022/09/20 00:52:54;;;;;;;;;;;;;;;9.22;80.83;98335.28;5088157;28;19932;-64
2022/09/20 00:55:24;;;;;;;;;;;;;;;9.18;80.75;98333.13;5087767;28;19924;-66
2022/09/20 00:57:59;;;;;;;;;;;;;;;9.20;80.97;98338.25;5057644;28;19928;-66
2022/09/20 01:00:52;;;;;;;;;;;;;;;9.16;80.59;98329.09;5081853;28;20015;-66
2022/09/20 01:03:45;;;;;;;;;;;;;;;9.18;80.92;98332.31;5084740;28;19989;-65
2022/09/20 01:07:04;;;;;;;;;;;;;;;9.18;80.69;98337.75;5069104;28;19932;-65
2022/09/20 01:09:32;;;;;;;;;;;;;;;9.16;80.77;98329.91;5091104;28;20320;-66
2022/09/20 01:12:01;;;;;;;;;;;;;;;9.17;80.56;98336.13;5070578;28;19947;-66
2022/09/20 01:14:29;;;;;;;;;;;;;;;9.18;81.08;98337.75;5091402;28;19959;-66
2022/09/20 01:16:57;;;;;;;;;;;;;;;9.17;80.49;98344.28;5072817;28;19948;-66
2022/09/20 01:19:27;;;;;;;;;;;;;;;9.16;80.65;98331.78;5080267;28;19924;-66
2022/09/20 01:22:22;;;;;;;;;;;;;;;9.15;80.47;98341.84;5091621;28;19931;-66
2022/09/20 01:24:52;;;;;;;;;;;;;;;9.16;80.69;98339.94;5069443;28;19936;-67
2022/09/20 01:27:24;;;;;;;;;;;;;;;9.23;80.60;98334.16;5069387;28;19924;-66
2022/09/20 01:30:00;;;;;;;;;;;;;;;9.24;80.69;98336.56;5085794;28;19924;-65
2022/09/20 01:32:30;;;;;;;;;;;;;;;9.22;80.43;98338.78;5086046;28;19934;-66
2022/09/20 01:34:58;;;;;;;;;;;;;;;9.23;80.71;98347.72;5071757;28;19925;-66
2022/09/20 01:37:27;;;;;;;;;;;;;;;9.25;80.69;98337.38;5073004;28;19928;-66
2022/09/20 01:39:58;;;;;;;;;;;;;;;9.24;80.47;98335.78;5067939;28;20296;-65
2022/09/20 01:42:29;;;;;;;;;;;;;;;9.25;80.47;98342.81;5071825;28;19928;-66
2022/09/20 01:45:07;;;;;;;;;;;;;;;9.26;80.36;98333.56;5071840;28;19924;-66
2022/09/20 01:47:38;;;;;;;;;;;;;;;9.26;80.49;98337.09;5087135;28;20334;-66
2022/09/20 01:50:08;;;;;;;;;;;;;;;9.27;80.67;98336.00;5090406;28;20340;-65
2022/09/20 01:52:40;;;;;;;;;;;;;;;9.27;80.86;98336.00;5090851;28;20288;-63
2022/09/20 01:55:11;;;;;;;;;;;;;;;9.27;80.61;98341.44;5076097;28;19928;-65
2022/09/20 01:57:43;;;;;;;;;;;;;;;9.32;80.82;98352.22;5086697;28;20364;-66
2022/09/20 02:00:17;;;;;;;;;;;;;;;9.33;80.73;98342.97;5086759;28;20448;-66
2022/09/20 02:06:50;;;;;;;;;;;;;;;9.32;81.02;98349.50;5084520;28;19924;-58
2022/09/20 02:09:35;;;;;;;;;;;;;;;9.28;80.79;98351.16;5072878;28;19924;-65
2022/09/20 02:12:34;;;;;;;;;;;;;;;9.31;81.05;98347.84;5078980;28;19924;-63
2022/09/20 02:16:16;;;;;;;;;;;;;;;9.28;81.11;98347.66;5072132;28;19969;-66
2022/09/20 02:19:10;;;;;;;;;;;;;;;9.25;81.37;98348.22;5073163;28;19929;-66
2022/09/20 02:22:04;;;;;;;;;;;;;;;9.23;81.51;98347.72;5067433;28;19928;-61
2022/09/20 02:24:53;;;;;;;;;;;;;;;9.24;81.70;98349.31;5079412;28;19947;-66
2022/09/20 02:27:45;;;;;;;;;;;;;;;9.22;81.43;98349.63;5068658;28;20334;-66
2022/09/20 02:30:35;;;;;;;;;;;;;;;9.21;81.65;98353.41;5070049;28;20019;-66
2022/09/20 02:33:28;;;;;;;;;;;;;;;9.21;82.03;98353.41;5061488;28;19935;-66
2022/09/20 02:36:19;;;;;;;;;;;;;;;9.25;81.96;98353.66;5064084;28;19928;-66
2022/09/20 02:39:08;;;;;;;;;;;;;;;9.22;81.75;98355.06;5072605;28;19929;-67
2022/09/20 02:41:56;;;;;;;;;;;;;;;9.20;82.15;98357.22;5065276;28;19932;-65
2022/09/20 02:44:53;;;;;;;;;;;;;;;9.19;82.07;98347.50;5059450;28;19929;-65
2022/09/20 02:47:42;;;;;;;;;;;;;;;9.19;82.31;98345.59;5070835;28;19925;-64
2022/09/20 02:50:59;;;;;;;;;;;;;;;9.15;82.25;98349.16;5069237;28;19990;-64
2022/09/20 02:53:48;;;;;;;;;;;;;;;9.14;82.40;98355.69;5057024;28;19924;-62
2022/09/20 02:56:41;;;;;;;;;;;;;;;9.18;82.25;98354.81;5065481;28;19933;-62
2022/09/20 02:59:31;;;;;;;;;;;;;;;9.21;81.96;98348.00;5062309;28;19963;-63
2022/09/20 03:02:21;;;;;;;;;;;;;;;9.20;81.87;98346.38;5070890;28;19928;-64
2022/09/20 03:05:13;;;;;;;;;;;;;;;9.18;82.12;98343.97;5081424;28;19925;-65
2022/09/20 03:08:09;;;;;;;;;;;;;;;9.17;81.89;98346.97;5071105;28;19964;-65
2022/09/20 03:11:01;;;;;;;;;;;;;;;9.12;82.28;98353.28;5058349;28;19924;-65
2022/09/20 03:14:04;;;;;;;;;;;;;;;9.10;82.08;98357.34;5047672;28;19929;-64
2022/09/20 03:16:58;;;;;;;;;;;;;;;9.13;82.41;98351.38;5049764;28;19928;-66
2022/09/20 03:19:33;;;;;;;;;;;;;;;9.13;82.35;98354.06;5047067;28;20023;-64
2022/09/20 03:22:05;;;;;;;;;;;;;;;9.15;82.53;98354.59;5040567;28;20284;-66
2022/09/20 03:24:40;;;;;;;;;;;;;;;9.16;82.64;98364.31;5053086;28;19947;-66
2022/09/20 03:27:13;;;;;;;;;;;;;;;9.17;82.82;98357.81;5067950;28;20362;-66
2022/09/20 03:30:14;;;;;;;;;;;;;;;9.21;82.68;98363.44;5047825;28;20385;-66
2022/09/20 03:32:47;;;;;;;;;;;;;;;9.20;82.60;98365.34;5049409;28;19946;-66
2022/09/20 03:35:19;;;;;;;;;;;;;;;9.15;82.39;98368.94;5044805;28;20114;-66
2022/09/20 03:37:53;;;;;;;;;;;;;;;9.10;82.58;98371.72;5049497;28;19925;-66
2022/09/20 03:40:35;;;;;;;;;;;;;;;9.11;82.83;98365.22;5046253;28;19936;-66
2022/09/20 03:43:09;;;;;;;;;;;;;;;9.07;82.54;98360.66;5042812;28;20404;-66
2022/09/20 03:45:46;;;;;;;;;;;;;;;9.07;82.66;98361.47;5049681;28;19924;-66
2022/09/20 03:48:21;;;;;;;;;;;;;;;9.08;82.93;98359.56;5046150;28;19928;-65
2022/09/20 03:50:52;;;;;;;;;;;;;;;9.11;82.83;98361.72;5045035;28;19933;-66
2022/09/20 03:53:35;;;;;;;;;;;;;;;9.12;82.81;98353.28;5052600;28;19925;-65
2022/09/20 03:56:11;;;;;;;;;;;;;;;9.11;82.65;98359.81;4985783;28;20404;-62
2022/09/20 03:58:44;;;;;;;;;;;;;;;9.12;82.76;98364.13;5051157;28;19939;-63
2022/09/20 04:01:20;;;;;;;;;;;;;;;9.13;82.79;98364.91;5051253;28;20449;-66
2022/09/20 04:04:19;;;;;;;;;;;;;;;9.11;82.75;98364.41;5043487;28;19929;-66
2022/09/20 04:06:51;;;;;;;;;;;;;;;9.11;83.19;98370.63;5044664;28;19929;-62
2022/09/20 04:09:26;;;;;;;;;;;;;;;9.08;82.90;98376.63;5057989;28;19924;-65
2022/09/20 04:11:58;;;;;;;;;;;;;;;9.08;82.99;98373.91;5069466;28;19924;-67
2022/09/20 04:14:27;;;;;;;;;;;;;;;9.10;83.00;98376.31;5070222;28;19929;-65
2022/09/20 04:16:58;;;;;;;;;;;;;;;9.11;82.97;98369.84;5071209;28;20359;-66
2022/09/20 04:19:26;;;;;;;;;;;;;;;9.11;82.83;98380.69;5053620;28;19928;-65
2022/09/20 04:22:00;;;;;;;;;;;;;;;9.09;82.99;98382.84;5070206;28;19979;-63
2022/09/20 04:24:32;;;;;;;;;;;;;;;9.06;82.97;98383.44;5058101;28;19925;-64
2022/09/20 04:27:01;;;;;;;;;;;;;;;9.03;83.05;98378.59;5067244;28;19928;-66
2022/09/20 04:29:32;;;;;;;;;;;;;;;9.01;83.13;98378.91;5061619;28;19928;-65
2022/09/20 04:32:02;;;;;;;;;;;;;;;9.03;83.32;98382.09;5058202;28;19932;-66
2022/09/20 04:37:21;;;;;;;;;;;;;;;9.06;83.12;98383.44;5068791;28;19925;-65
2022/09/20 04:39:51;;;;;;;;;;;;;;;9.04;82.39;98380.19;5068593;28;19932;-66
2022/09/20 04:42:30;;;;;;;;;;;;;;;9.06;82.73;98388.88;5069943;28;19939;-66
2022/09/20 04:45:16;;;;;;;;;;;;;;;9.07;82.88;98395.91;5052254;28;20461;-65
2022/09/20 04:48:09;;;;;;;;;;;;;;;9.09;82.77;98393.69;5065695;28;20019;-65
2022/09/20 04:50:56;;;;;;;;;;;;;;;9.13;82.30;98400.16;5070304;28;20422;-66
2022/09/20 04:53:38;;;;;;;;;;;;;;;9.13;81.92;98392.84;5071021;28;19962;-66
2022/09/20 04:56:08;;;;;;;;;;;;;;;9.11;82.18;98391.53;5059119;28;19924;-66
2022/09/20 04:58:57;;;;;;;;;;;;;;;9.10;82.37;98398.81;5075308;28;20250;-66
2022/09/20 05:01:50;;;;;;;;;;;;;;;9.08;82.29;98398.31;5057372;28;19928;-66
2022/09/20 05:04:39;;;;;;;;;;;;;;;9.14;82.38;98405.28;5066566;28;19928;-66
2022/09/20 05:07:15;;;;;;;;;;;;;;;9.12;81.81;98409.41;5069593;28;19931;-61
2022/09/20 05:09:58;;;;;;;;;;;;;;;9.07;82.27;98412.97;5081455;28;19928;-65
2022/09/20 05:12:33;;;;;;;;;;;;;;;9.01;82.24;98414.13;5055191;28;20398;-66
2022/09/20 05:15:19;;;;;;;;;;;;;;;9.01;82.10;98418.75;5084547;28;19928;-65
2022/09/20 05:17:53;;;;;;;;;;;;;;;9.00;82.06;98423.34;5069452;28;19924;-66
2022/09/20 05:20:26;;;;;;;;;;;;;;;8.98;82.27;98427.44;5077828;28;20276;-65
2022/09/20 05:23:09;;;;;;;;;;;;;;;8.94;82.40;98424.47;5088352;28;19954;-66
2022/09/20 05:25:59;;;;;;;;;;;;;;;8.89;82.13;98425.38;5073263;28;19929;-66
2022/09/20 05:28:27;;;;;;;;;;;;;;;8.90;82.74;98424.28;5065036;28;19924;-66
2022/09/20 05:30:59;;;;;;;;;;;;;;;8.94;82.40;98429.91;5057944;28;19932;-64
2022/09/20 05:33:29;;;;;;;;;;;;;;;9.01;82.00;98429.59;5089995;28;19935;-66
2022/09/20 05:36:04;;;;;;;;;;;;;;;9.02;82.21;98431.19;5068732;28;19951;-64
2022/09/20 05:38:34;;;;;;;;;;;;;;;9.02;81.95;98433.91;5086735;28;20005;-66
2022/09/20 05:41:09;;;;;;;;;;;;;;;9.03;81.49;98430.91;5090515;28;19978;-66
2022/09/20 05:43:40;;;;;;;;;;;;;;;9.02;81.94;98434.72;5089513;28;19928;-65
2022/09/20 05:46:11;;;;;;;;;;;;;;;9.00;81.46;98433.38;5088170;28;19928;-64
2022/09/20 05:48:44;;;;;;;;;;;;;;;9.04;82.03;98443.34;5072280;28;20368;-59
2022/09/20 05:51:37;;;;;;;;;;;;;;;9.06;81.75;98443.88;5089656;28;19936;-63
2022/09/20 05:54:15;;;;;;;;;;;;;;;9.12;81.50;98440.00;5087324;28;19931;-65
2022/09/20 05:56:46;;;;;;;;;;;;;;;9.15;81.07;98442.13;5082427;28;20023;-66
2022/09/20 05:59:21;;;;;;;;;;;;;;;9.12;81.03;98442.72;5089941;28;19946;-65
2022/09/20 06:01:57;;;;;;;;;;;;;;;9.10;80.76;98449.50;5086696;28;19963;-66
2022/09/20 06:04:29;;;;;;;;;;;;;;;9.10;81.00;98435.97;5086359;28;19929;-65
2022/09/20 06:07:02;;;;;;;;;;;;;;;9.16;80.14;98437.50;5086035;28;20474;-65
2022/09/20 06:09:34;;;;;;;;;;;;;;;9.16;79.99;98448.34;5089308;28;19974;-66
2022/09/20 06:12:20;;;;;;;;;;;;;;;9.15;79.96;98449.47;5082032;28;19924;-66
2022/09/20 06:14:50;;;;;;;;;;;;;;;9.11;80.21;98457.38;5088319;28;20024;-66
2022/09/20 06:17:23;;;;;;;;;;;;;;;9.07;79.76;98455.53;5065485;28;19932;-63
2022/09/20 06:19:52;;;;;;;;;;;;;;;9.04;79.96;98461.50;5086919;28;19985;-66
2022/09/20 06:22:21;;;;;;;;;;;;;;;9.11;80.35;98454.66;5090199;28;19931;-66
2022/09/20 06:24:51;;;;;;;;;;;;;;;9.16;79.85;98449.19;5085704;28;19925;-66
2022/09/20 06:30:13;;;;;;;;;;;;;;;9.39;79.65;98442.13;5079432;28;20001;-67
2022/09/20 06:32:52;;;;;;;;;;;;;;;9.48;79.32;98446.88;5088394;28;19929;-66
2022/09/20 06:35:20;;;;;;;;;;;;;;;9.62;79.24;98445.09;5087911;28;20402;-66
2022/09/20 06:43:27;;;;;;;;;;;;;;;9.53;78.85;98449.53;5087667;28;19924;-66
2022/09/20 06:45:55;;;;;;;;;;;;;;;9.43;78.30;98453.22;5088706;28;19932;-66
2022/09/20 06:48:24;;;;;;;;;;;;;;;9.43;79.06;98456.72;5088229;28;19936;-63
2022/09/20 06:51:13;;;;;;;;;;;;;;;9.48;78.92;98455.88;5086395;28;19963;-61
2022/09/20 06:54:01;;;;;;;;;;;;;;;9.55;79.12;98455.50;5081140;28;20576;-61
2022/09/20 06:56:50;;;;;;;;;;;;;;;9.65;78.86;98460.78;5078972;28;20006;-63
2022/09/20 06:59:38;;;;;;;;;;;;;;;9.80;78.46;98455.16;5075984;28;19936;-65
2022/09/20 07:02:27;;;;;;;;;;;;;;;9.88;78.31;98459.13;5077656;28;19924;-64
2022/09/20 07:05:20;;;;;;;;;;;;;;;9.91;78.21;98455.81;5071784;28;19928;-65
2022/09/20 07:08:09;;;;;;;;;;;;;;;9.80;77.86;98460.59;5080331;28;21383;-63
2022/09/20 07:10:57;;;;;;;;;;;;;;;9.68;79.10;98462.91;5076543;28;19928;-65
2022/09/20 07:13:50;;;;;;;;;;;;;;;9.60;80.05;98463.56;5080199;28;20344;-65
2022/09/20 07:16:38;;;;;;;;;;;;;;;9.61;81.13;98466.00;5080417;28;19927;-62
2022/09/20 07:19:29;;;;;;;;;;;;;;;9.62;81.16;98467.59;5081026;28;19935;-65
2022/09/20 07:22:17;;;;;;;;;;;;;;;9.58;80.13;98465.75;5083318;28;20457;-64
2022/09/20 07:25:06;;;;;;;;;;;;;;;9.68;81.31;98471.84;5085419;28;19931;-62
2022/09/20 07:27:57;;;;;;;;;;;;;;;9.74;80.96;98477.22;5082013;28;20463;-65
2022/09/20 07:34:00;;;;;;;;;;;;;;;9.69;79.70;98476.19;5083765;28;20358;-65
2022/09/20 07:36:50;;;;;;;;;;;;;;;9.71;79.69;98482.13;5080413;28;19924;-63
2022/09/20 07:39:38;;;;;;;;;;;;;;;9.78;79.67;98476.34;5085028;28;19928;-64
2022/09/20 07:42:28;;;;;;;;;;;;;;;9.87;79.80;98480.03;5084996;28;19924;-64
2022/09/20 07:45:17;;;;;;;;;;;;;;;9.87;79.03;98471.88;5081381;28;20553;-65
2022/09/20 07:48:07;;;;;;;;;;;;;;;9.91;79.13;98485.69;5083582;28;19963;-64
2022/09/20 07:50:56;;;;;;;;;;;;;;;9.90;79.17;98493.00;5061758;28;19963;-64
2022/09/20 07:53:47;;;;;;;;;;;;;;;10.01;79.11;98484.72;5082335;28;19932;-62
2022/09/20 07:56:35;;;;;;;;;;;;;;;9.96;78.27;98499.19;5082375;28;19924;-64
2022/09/20 07:59:25;;;;;;;;;;;;;;;9.96;78.44;98497.28;5070074;28;20476;-65
2022/09/20 08:02:14;;;;;;;;;;;;;;;9.88;77.86;98500.63;5078628;28;20682;-64
2022/09/20 08:05:05;;;;;;;;;;;;;;;9.96;77.49;98500.00;5081765;28;19928;-64
2022/09/20 08:07:53;;;;;;;;;;;;;;;10.04;77.92;98511.28;5069365;28;19928;-64
2022/09/20 08:10:42;;;;;;;;;;;;;;;10.04;77.73;98506.66;5083505;28;19928;-64
2022/09/20 08:13:29;;;;;;;;;;;;;;;10.10;77.53;98507.41;5082916;28;20568;-63
2022/09/20 08:16:39;;;;;;;;;;;;;;;10.15;76.58;98505.41;5082075;28;19931;-63
2022/09/20 08:19:29;;;;;;;;;;;;;;;10.24;77.23;98502.88;5075968;28;19936;-63
2022/09/20 08:22:19;;;;;;;;;;;;;;;10.36;77.43;98508.66;5066011;28;19945;-63
2022/09/20 08:25:07;;;;;;;;;;;;;;;10.42;76.84;98512.09;5079992;28;19928;-65
2022/09/20 08:27:56;;;;;;;;;;;;;;;10.44;75.32;98521.59;5068094;28;19931;-63
2022/09/20 08:30:44;;;;;;;;;;;;;;;10.44;74.55;98515.34;5070162;28;20002;-63
2022/09/20 08:33:57;;;;;;;;;;;;;;;10.42;74.67;98518.34;5079440;28;19924;-64
2022/09/20 08:36:51;;;;;;;;;;;;;;;10.40;75.26;98520.56;5074819;28;19928;-64
2022/09/20 08:39:41;;;;;;;;;;;;;;;10.42;74.89;98522.97;5079734;28;20456;-65
2022/09/20 08:42:47;;;;;;;;;;;;;;;10.40;74.86;98522.47;5081134;28;19931;-65
2022/09/20 08:45:35;;;;;;;;;;;;;;;10.52;75.21;98522.81;5068766;28;19928;-63
2022/09/20 08:48:25;;;;;;;;;;;;;;;10.59;74.17;98522.44;5077347;28;20376;-63
2022/09/20 08:51:15;;;;;;;;;;;;;;;10.55;74.21;98524.94;5076869;28;19977;-62
2022/09/20 08:54:11;;;;;;;;;;;;;;;10.48;73.98;98522.59;5076088;28;19932;-64
2022/09/20 08:57:04;;;;;;;;;;;;;;;10.53;74.31;98527.13;5078551;28;19954;-66
2022/09/20 08:59:32;;;;;;;;;;;;;;;10.53;73.66;98523.63;5088920;28;19924;-67
2022/09/20 09:02:00;;;;;;;;;;;;;;;10.51;72.28;98520.41;5072898;28;19932;-64
2022/09/20 09:04:35;;;;;;;;;;;;;;;10.63;72.55;98526.97;5085215;28;20327;-67
2022/09/20 09:07:03;;;;;;;;;;;;;;;10.78;71.14;98520.50;5089389;28;20361;-68
2022/09/20 09:09:31;;;;;;;;;;;;;;;10.74;70.75;98523.00;5068653;28;19928;-66
2022/09/20 09:12:05;;;;;;;;;;;;;;;10.68;71.92;98531.53;5085995;28;20042;-66
2022/09/20 09:14:48;;;;;;;;;;;;;;;10.45;71.56;98527.81;5085588;28;19932;-64
2022/09/20 09:17:17;;;;;;;;;;;;;;;10.37;72.90;98532.00;5087211;28;19967;-66
2022/09/20 09:19:46;;;;;;;;;;;;;;;10.31;73.99;98529.66;5071029;28;19935;-63
2022/09/20 09:22:18;;;;;;;;;;;;;;;10.21;74.74;98527.88;5071606;28;19989;-65
2022/09/20 09:24:47;;;;;;;;;;;;;;;10.28;74.56;98528.34;5084991;28;19999;-58
2022/09/20 09:27:16;;;;;;;;;;;;;;;10.42;73.55;98518.34;5088406;28;19935;-65
2022/09/20 09:30:11;;;;;;;;;;;;;;;10.64;71.77;98515.00;5088446;28;19927;-66
2022/09/20 09:32:39;;;;;;;;;;;;;;;10.73;71.35;98512.44;5089381;28;19963;-67
2022/09/20 09:35:20;;;;;;;;;;;;;;;10.89;71.17;98510.25;5089018;28;19955;-67
2022/09/20 09:37:56;;;;;;;;;;;;;;;10.97;71.08;98510.38;5084499;28;19938;-62
2022/09/20 09:40:26;;;;;;;;;;;;;;;11.11;72.09;98509.59;5078168;28;19928;-67
2022/09/20 09:42:56;;;;;;;;;;;;;;;11.09;71.38;98503.66;5088912;28;19956;-66
2022/09/20 09:45:26;;;;;;;;;;;;;;;11.00;70.91;98507.06;5082846;28;19929;-67
2022/09/20 09:47:56;;;;;;;;;;;;;;;11.01;71.84;98508.66;5081553;28;20470;-65
2022/09/20 09:50:25;;;;;;;;;;;;;;;11.16;70.94;98509.50;5089841;28;19932;-66
2022/09/20 09:53:01;;;;;;;;;;;;;;;11.04;70.19;98506.47;5089810;28;20272;-64
2022/09/20 09:55:38;;;;;;;;;;;;;;;11.14;70.92;98506.28;5089726;28;19924;-63
2022/09/20 09:58:09;;;;;;;;;;;;;;;11.42;71.77;98504.38;5075321;28;19986;-67
2022/09/20 10:01:02;;;;;;;;;;;;;;;11.43;70.32;98520.41;5072942;28;19935;-65
2022/09/20 10:06:33;;;;;;;;;;;;;;;11.42;70.85;98507.91;5070756;28;19924;-66
2022/09/20 10:09:10;;;;;;;;;;;;;;;11.59;68.23;98503.78;5072935;28;19929;-66
2022/09/20 10:11:42;;;;;;;;;;;;;;;11.72;67.40;98506.50;5081292;28;19925;-66
2022/09/20 10:14:15;;;;;;;;;;;;;;;11.76;64.24;98501.22;5083736;28;19924;-63
2022/09/20 10:16:56;;;;;;;;;;;;;;;11.70;65.27;98510.63;5079293;28;20374;-64
2022/09/20 10:19:25;;;;;;;;;;;;;;;11.81;64.06;98501.13;5085846;28;20331;-59
2022/09/20 10:21:55;;;;;;;;;;;;;;;11.72;65.67;98500.25;5080571;28;20376;-64
2022/09/20 10:24:29;;;;;;;;;;;;;;;11.57;65.68;98508.72;5070295;28;20387;-63
2022/09/20 10:27:01;;;;;;;;;;;;;;;11.54;65.52;98502.75;5083580;28;20026;-64
2022/09/20 10:29:36;;;;;;;;;;;;;;;11.57;65.96;98506.00;5092477;28;19931;-64
2022/09/20 10:32:07;;;;;;;;;;;;;;;11.64;67.25;98503.66;5088494;28;19934;-65
2022/09/20 10:34:51;;;;;;;;;;;;;;;11.71;66.72;98509.50;5091985;28;19924;-64
2022/09/20 10:37:21;;;;;;;;;;;;;;;11.55;67.78;98507.09;5067559;28;19971;-65
2022/09/20 10:39:54;;;;;;;;;;;;;;;11.49;65.20;98512.94;5072269;28;20372;-65
2022/09/20 10:45:10;;;;;;;;;;;;;;;11.36;66.44;98502.88;5092039;28;19924;-64
2022/09/20 10:47:39;;;;;;;;;;;;;;;11.41;66.99;98511.75;5091967;28;19928;-66
2022/09/20 10:50:08;;;;;;;;;;;;;;;11.41;66.35;98511.75;5092854;28;19963;-65
2022/09/20 10:52:40;;;;;;;;;;;;;;;11.59;67.36;98498.31;5093502;28;19928;-65
2022/09/20 10:55:12;;;;;;;;;;;;;;;11.72;66.34;98506.50;5093429;28;19924;-66
2022/09/20 10:57:47;;;;;;;;;;;;;;;11.85;66.00;98507.59;5068412;28;19928;-66
2022/09/20 11:06:47;;;;;;;;;;;;;;;11.62;68.52;98508.63;5082388;28;19928;-64
2022/09/20 11:09:17;;;;;;;;;;;;;;;11.44;68.42;98511.13;5091237;28;19932;-66
2022/09/20 11:11:45;;;;;;;;;;;;;;;11.43;68.89;98504.06;5092905;28;20034;-64
2022/09/20 11:14:13;;;;;;;;;;;;;;;11.43;67.67;98509.50;5093116;28;19927;-66
2022/09/20 11:16:45;;;;;;;;;;;;;;;11.58;68.47;98499.44;5081707;28;19924;-66
2022/09/20 11:19:15;;;;;;;;;;;;;;;11.76;65.91;98504.75;5092940;28;20022;-64
2022/09/20 11:21:43;;;;;;;;;;;;;;;11.82;65.10;98505.47;5087581;28;19928;-66
2022/09/20 11:24:13;;;;;;;;;;;;;;;11.66;65.40;98504.16;5068214;28;20374;-66
2022/09/20 11:26:41;;;;;;;;;;;;;;;11.70;65.52;98513.34;5087504;28;19974;-64
2022/09/20 11:29:19;;;;;;;;;;;;;;;11.71;64.24;98504.06;5089456;28;19928;-66
2022/09/20 11:31:49;;;;;;;;;;;;;;;11.73;64.08;98507.31;5091719;28;20005;-65
2022/09/20 11:34:21;;;;;;;;;;;;;;;11.85;64.00;98504.09;5087619;28;19924;-66
2022/09/20 11:37:08;;;;;;;;;;;;;;;11.83;62.23;98511.75;5079392;28;19931;-65
2022/09/20 11:40:00;;;;;;;;;;;;;;;11.77;62.90;98513.72;5080067;28;19962;-65
2022/09/20 11:42:49;;;;;;;;;;;;;;;11.78;62.94;98504.47;5078343;28;20335;-63
2022/09/20 11:45:37;;;;;;;;;;;;;;;11.84;62.71;98514.19;5085992;28;19928;-62
2022/09/20 11:48:28;;;;;;;;;;;;;;;11.95;62.45;98504.66;5086351;28;20384;-64
2022/09/20 11:51:34;;;;;;;;;;;;;;;12.08;62.22;98508.47;5074770;28;19925;-65
2022/09/20 11:54:27;;;;;;;;;;;;;;;12.02;62.65;98506.97;5066757;28;19936;-63
2022/09/20 11:57:15;;;;;;;;;;;;;;;12.14;62.66;98506.44;5081612;28;19924;-62
2022/09/20 12:00:06;;;;;;;;;;;;;;;12.20;60.42;98500.59;5077723;28;19923;-64
2022/09/20 12:03:02;;;;;;;;;;;;;;;12.04;61.02;98500.13;5080742;28;20347;-65
2022/09/20 12:09:21;;;;;;;;;;;;;;;11.96;62.54;98498.09;5069802;28;19928;-64
2022/09/20 12:12:25;;;;;;;;;;;;;;;11.92;62.07;98499.81;5081185;28;20273;-64
2022/09/20 12:15:22;;;;;;;;;;;;;;;11.81;62.30;98492.97;5084615;28;19935;-66
2022/09/20 12:18:31;;;;;;;;;;;;;;;11.70;62.21;98497.81;5067250;28;19928;-64
2022/09/20 12:21:23;;;;;;;;;;;;;;;11.72;62.30;98497.53;5071761;28;19939;-61
2022/09/20 12:24:19;;;;;;;;;;;;;;;11.93;61.72;98495.19;5077014;28;19939;-66
2022/09/20 12:30:33;;;;;;;;;;;;;;;11.95;63.49;98510.13;5079960;28;20388;-59
2022/09/20 12:33:21;;;;;;;;;;;;;;;11.75;65.14;98511.31;5082855;28;19939;-63
2022/09/20 12:36:16;;;;;;;;;;;;;;;11.55;65.64;98496.19;5084382;28;20019;-63
2022/09/20 12:39:13;;;;;;;;;;;;;;;11.51;65.73;98514.25;5081810;28;19935;-65
2022/09/20 12:42:28;;;;;;;;;;;;;;;11.66;65.64;98502.25;5084260;28;19930;-65
2022/09/20 12:45:16;;;;;;;;;;;;;;;11.80;64.78;98497.59;5080537;28;19925;-62
2022/09/20 12:48:05;;;;;;;;;;;;;;;11.87;64.94;98497.22;5083648;28;19993;-64
2022/09/20 12:54:12;;;;;;;;;;;;;;;12.14;63.72;98488.16;5081860;28;20019;-62
2022/09/20 12:57:16;;;;;;;;;;;;;;;12.26;63.14;98493.91;5071648;28;19935;-65
2022/09/20 13:00:05;;;;;;;;;;;;;;;12.30;61.07;98491.34;5078226;28;19932;-65
2022/09/20 13:02:57;;;;;;;;;;;;;;;12.36;58.80;98487.41;5078288;28;20500;-62
2022/09/20 13:09:03;;;;;;;;;;;;;;;12.29;59.96;98487.00;5059871;28;19939;-63
2022/09/20 13:11:53;;;;;;;;;;;;;;;12.25;60.76;98486.84;5053256;28;19925;-64
2022/09/20 13:14:43;;;;;;;;;;;;;;;12.26;60.71;98491.19;5057611;28;20317;-66
2022/09/20 13:17:32;;;;;;;;;;;;;;;12.33;60.18;98493.47;5061950;28;19933;-64
2022/09/20 13:20:23;;;;;;;;;;;;;;;12.36;58.70;98481.97;5059497;28;19933;-64
2022/09/20 13:23:15;;;;;;;;;;;;;;;12.19;59.53;98484.53;5069858;28;19932;-66
2022/09/20 13:25:44;;;;;;;;;;;;;;;12.24;59.79;98484.41;5070836;28;19928;-66
2022/09/20 13:28:18;;;;;;;;;;;;;;;12.21;59.08;98479.59;5085418;28;20126;-66
2022/09/20 13:33:39;;;;;;;;;;;;;;;12.51;58.29;98478.03;5058072;28;20421;-66
2022/09/20 13:36:07;;;;;;;;;;;;;;;12.55;57.26;98482.56;5066225;28;19936;-66
2022/09/20 13:38:37;;;;;;;;;;;;;;;12.61;56.15;98477.00;5066045;28;20449;-61
2022/09/20 13:41:07;;;;;;;;;;;;;;;12.53;54.89;98468.47;5061598;28;19929;-66
2022/09/20 13:43:38;;;;;;;;;;;;;;;12.58;55.61;98467.53;5057805;28;20439;-66
2022/09/20 13:46:08;;;;;;;;;;;;;;;12.56;56.24;98458.84;5058365;28;19933;-66
2022/09/20 13:48:41;;;;;;;;;;;;;;;12.53;56.99;98464.94;5066590;28;20020;-66
2022/09/20 13:51:16;;;;;;;;;;;;;;;12.58;57.46;98462.09;5057781;28;19925;-66
2022/09/20 13:53:45;;;;;;;;;;;;;;;12.67;56.95;98464.84;5070603;28;19928;-65
2022/09/20 13:56:16;;;;;;;;;;;;;;;12.64;57.37;98465.47;5055304;28;19925;-65
2022/09/20 13:58:46;;;;;;;;;;;;;;;12.68;57.53;98471.94;5065866;28;19931;-64
2022/09/20 14:04:14;;;;;;;;;;;;;;;12.85;56.93;98459.19;5055860;28;19978;-66
2022/09/20 14:06:45;;;;;;;;;;;;;;;12.84;57.88;98459.50;5050802;28;19924;-65
2022/09/20 14:09:18;;;;;;;;;;;;;;;12.83;57.75;98458.69;5064118;28;19929;-65
2022/09/20 14:12:10;;;;;;;;;;;;;;;12.98;57.95;98459.41;5061471;28;19931;-66
2022/09/20 14:14:42;;;;;;;;;;;;;;;12.97;57.17;98458.59;5068396;28;20407;-66
2022/09/20 14:17:12;;;;;;;;;;;;;;;13.06;56.94;98459.47;5068226;28;19937;-65
2022/09/20 14:19:40;;;;;;;;;;;;;;;13.08;56.28;98459.94;5049957;28;19932;-64
2022/09/20 14:22:08;;;;;;;;;;;;;;;13.09;56.53;98461.53;5063698;28;20377;-65
2022/09/20 14:24:36;;;;;;;;;;;;;;;13.04;57.19;98464.41;5069322;28;19928;-66
2022/09/20 14:27:06;;;;;;;;;;;;;;;13.21;57.38;98457.41;5068753;28;19932;-66
2022/09/20 14:29:38;;;;;;;;;;;;;;;13.27;57.43;98461.66;5062442;28;19968;-64
2022/09/20 14:32:10;;;;;;;;;;;;;;;13.33;55.95;98465.88;5060528;28;20061;-64
2022/09/20 14:34:38;;;;;;;;;;;;;;;13.40;55.22;98466.19;5067895;28;19924;-64
2022/09/20 14:37:06;;;;;;;;;;;;;;;13.39;54.46;98467.31;5064268;28;20347;-62
2022/09/20 14:39:35;;;;;;;;;;;;;;;13.47;55.56;98469.25;5071144;28;20015;-64
2022/09/20 14:42:02;;;;;;;;;;;;;;;13.56;55.88;98464.63;5058038;28;20298;-65
2022/09/20 14:44:30;;;;;;;;;;;;;;;13.50;55.76;98465.91;5069511;28;19924;-63
2022/09/20 14:46:59;;;;;;;;;;;;;;;13.31;53.87;98466.16;5068531;28;19977;-64
2022/09/20 14:49:32;;;;;;;;;;;;;;;13.15;51.23;98464.13;5069021;28;19977;-65
2022/09/20 14:52:20;;;;;;;;;;;;;;;12.96;51.73;98457.00;5065729;28;19929;-64
2022/09/20 14:54:57;;;;;;;;;;;;;;;13.03;52.76;98467.47;5058732;28;19967;-64